createdAt,value
2022-11-05T00:00:18.074Z,6.50
2022-11-05T00:03:04.239Z,7.90
2022-11-05T00:05:50.575Z,9.25
2022-11-05T00:08:36.519Z,7.35
2022-11-05T00:11:04.635Z,8.15
2022-11-05T00:13:50.425Z,7.82
2022-11-05T00:16:36.163Z,7.65
2022-11-05T00:19:10.301Z,7.88
2022-11-05T00:21:57.562Z,7.30
2022-11-05T00:24:43.566Z,7.20
2022-11-05T00:27:11.395Z,6.85
2022-11-05T00:29:38.639Z,6.10
2022-11-05T00:32:05.950Z,6.63
2022-11-05T00:34:33.164Z,6.07
2022-11-05T00:37:00.448Z,6.15
2022-11-05T00:39:27.728Z,9.32
2022-11-05T00:42:13.758Z,7.28
2022-11-05T00:44:59.365Z,6.72
2022-11-05T00:47:45.182Z,6.70
2022-11-05T00:50:12.675Z,5.80
2022-11-05T00:52:58.343Z,6.78
2022-11-05T00:55:34.588Z,6.18
2022-11-05T00:58:03.530Z,5.70
2022-11-05T01:00:32.288Z,6.10
2022-11-05T01:03:01.830Z,6.40
2022-11-05T01:05:30.514Z,6.38
2022-11-05T01:07:58.062Z,5.38
2022-11-05T01:10:25.980Z,5.72
2022-11-05T01:12:53.787Z,6.90
2022-11-05T01:15:21.421Z,6.10
2022-11-05T01:17:48.811Z,5.38
2022-11-05T01:20:16.704Z,5.95
2022-11-05T01:22:43.925Z,5.38
2022-11-05T01:25:11.252Z,5.65
2022-11-05T01:27:38.671Z,6.35
2022-11-05T01:30:08.726Z,5.55
2022-11-05T01:32:37.288Z,6.57
2022-11-05T01:35:10.633Z,5.68
2022-11-05T01:37:37.982Z,6.38
2022-11-05T01:40:06.849Z,5.78
2022-11-05T01:42:34.914Z,6.10
2022-11-05T01:45:17.037Z,5.82
2022-11-05T01:47:51.891Z,6.05
2022-11-05T01:50:31.152Z,5.50
2022-11-05T01:53:21.848Z,6.55
2022-11-05T01:56:07.117Z,5.63
2022-11-05T01:58:41.600Z,5.40
2022-11-05T02:01:09.302Z,5.72
2022-11-05T02:03:36.816Z,5.47
2022-11-05T02:06:04.866Z,4.75
2022-11-05T02:08:51.315Z,6.30
2022-11-05T02:11:20.025Z,5.53
2022-11-05T02:13:48.718Z,5.10
2022-11-05T02:16:29.026Z,5.47
2022-11-05T02:19:11.685Z,5.50
2022-11-05T02:22:09.795Z,4.85
2022-11-05T02:24:36.980Z,5.45
2022-11-05T02:27:13.244Z,4.88
2022-11-05T02:30:09.913Z,5.88
2022-11-05T02:32:47.216Z,5.85
2022-11-05T02:35:50.662Z,5.80
2022-11-05T02:38:23.806Z,5.20
2022-11-05T02:41:05.948Z,4.90
2022-11-05T02:46:50.981Z,5.88
2022-11-05T02:49:33.283Z,6.35
2022-11-05T02:52:09.828Z,6.10
2022-11-05T02:54:45.940Z,5.47
2022-11-05T02:57:13.185Z,5.63
2022-11-05T02:59:40.497Z,5.65
2022-11-05T03:02:08.155Z,6.00
2022-11-05T03:04:35.816Z,5.05
2022-11-05T03:07:15.031Z,5.82
2022-11-05T03:09:51.116Z,5.82
2022-11-05T03:12:24.174Z,5.60
2022-11-05T03:15:38.388Z,5.90
2022-11-05T03:18:20.427Z,5.68
2022-11-05T03:20:54.825Z,5.40
2022-11-05T03:23:48.939Z,6.35
2022-11-05T03:26:31.963Z,6.03
2022-11-05T03:29:06.918Z,5.43
2022-11-05T03:31:37.160Z,5.90
2022-11-05T03:34:08.019Z,6.07
2022-11-05T03:36:41.364Z,5.88
2022-11-05T03:39:14.730Z,5.10
2022-11-05T03:41:46.793Z,5.43
2022-11-05T03:44:18.077Z,5.90
2022-11-05T03:46:49.516Z,5.43
2022-11-05T03:49:22.214Z,5.93
2022-11-05T03:52:12.492Z,6.10
2022-11-05T03:54:39.957Z,6.10
2022-11-05T03:57:20.666Z,6.78
2022-11-05T03:59:50.296Z,5.13
2022-11-05T04:02:20.082Z,6.72
2022-11-05T04:04:47.582Z,6.57
2022-11-05T04:07:33.676Z,6.03
2022-11-05T04:10:19.302Z,5.88
2022-11-05T04:13:05.151Z,7.70
2022-11-05T04:15:50.996Z,7.25
2022-11-05T04:18:18.260Z,7.50
2022-11-05T04:21:03.942Z,7.65
2022-11-05T04:23:49.478Z,9.10
2022-11-05T04:26:16.752Z,8.52
2022-11-05T04:29:07.736Z,8.48
2022-11-05T04:31:35.294Z,8.90
2022-11-05T04:34:02.609Z,8.02
2022-11-05T04:36:30.164Z,8.38
2022-11-05T04:38:57.546Z,9.30
2022-11-05T04:41:24.806Z,8.70
2022-11-05T04:43:52.438Z,9.38
2022-11-05T04:46:19.790Z,8.77
2022-11-05T04:48:47.013Z,8.93
2022-11-05T04:51:14.328Z,8.73
2022-11-05T04:53:41.611Z,8.93
2022-11-05T04:56:10.599Z,9.02
2022-11-05T04:58:44.118Z,8.38
2022-11-05T05:01:16.758Z,8.07
2022-11-05T05:03:44.405Z,8.55
2022-11-05T05:06:11.785Z,8.45
2022-11-05T05:08:39.034Z,9.00
2022-11-05T05:11:09.372Z,8.93
2022-11-05T05:13:36.850Z,8.82
2022-11-05T05:16:24.376Z,9.35
2022-11-05T05:18:52.163Z,9.18
2022-11-05T05:21:40.526Z,9.10
2022-11-05T05:24:13.565Z,10.13
2022-11-05T05:26:46.663Z,8.95
2022-11-05T05:29:14.312Z,9.35
2022-11-05T05:31:42.311Z,9.27
2022-11-05T05:34:12.566Z,9.57
2022-11-05T05:36:39.949Z,10.32
2022-11-05T05:39:08.436Z,10.10
2022-11-05T05:41:35.690Z,12.43
2022-11-05T05:44:05.442Z,11.98
2022-11-05T05:46:32.982Z,12.15
2022-11-05T05:49:00.394Z,12.30
2022-11-05T05:51:27.662Z,12.73
2022-11-05T05:53:55.701Z,12.95
2022-11-05T05:56:22.930Z,11.10
2022-11-05T05:58:50.194Z,11.30
2022-11-05T06:01:19.563Z,11.32
2022-11-05T06:03:47.673Z,10.90
2022-11-05T06:06:16.273Z,10.85
2022-11-05T06:08:43.518Z,11.75
2022-11-05T06:11:11.081Z,11.43
2022-11-05T06:13:38.715Z,11.80
2022-11-05T06:16:10.067Z,12.38
2022-11-05T06:18:37.743Z,10.68
2022-11-05T06:21:10.582Z,12.73
2022-11-05T06:23:39.674Z,12.73
2022-11-05T06:26:09.881Z,13.18
2022-11-05T06:28:37.220Z,13.32
2022-11-05T06:31:04.899Z,12.68
2022-11-05T06:33:32.215Z,13.60
2022-11-05T06:36:01.078Z,12.63
2022-11-05T06:38:31.836Z,13.50
2022-11-05T06:41:00.479Z,13.02
2022-11-05T06:43:29.548Z,14.60
2022-11-05T06:45:58.086Z,14.93
2022-11-05T06:48:25.664Z,14.45
2022-11-05T06:50:52.887Z,12.80
2022-11-05T06:53:20.163Z,13.00
2022-11-05T06:55:50.565Z,15.50
2022-11-05T06:58:18.064Z,17.92
2022-11-05T07:00:45.737Z,19.10
2022-11-05T07:03:13.985Z,16.63
2022-11-05T07:05:47.085Z,18.13
2022-11-05T07:08:14.664Z,17.20
2022-11-05T07:10:42.213Z,15.93
2022-11-05T07:13:09.567Z,16.85
2022-11-05T07:15:37.977Z,15.93
2022-11-05T07:18:07.692Z,17.55
2022-11-05T07:20:35.713Z,15.68
2022-11-05T07:23:06.212Z,17.27
2022-11-05T07:25:34.147Z,16.70
2022-11-05T07:28:02.210Z,17.50
2022-11-05T07:30:30.165Z,17.65
2022-11-05T07:32:57.640Z,17.77
2022-11-05T07:35:25.312Z,17.75
2022-11-05T07:37:56.506Z,17.00
2022-11-05T07:40:25.686Z,17.63
2022-11-05T07:42:55.585Z,16.83
2022-11-05T07:45:23.676Z,16.90
2022-11-05T07:48:03.081Z,16.83
2022-11-05T07:50:32.647Z,16.83
2022-11-05T07:53:07.262Z,16.65
2022-11-05T07:55:34.909Z,16.27
2022-11-05T07:58:02.581Z,15.98
2022-11-05T08:00:30.430Z,16.42
2022-11-05T08:03:08.851Z,15.23
2022-11-05T08:05:38.885Z,15.88
2022-11-05T08:08:08.192Z,15.18
2022-11-05T08:10:36.329Z,15.27
2022-11-05T08:13:03.731Z,16.10
2022-11-05T08:15:31.411Z,16.13
2022-11-05T08:18:00.709Z,16.10
2022-11-05T08:20:28.902Z,15.95
2022-11-05T08:22:57.022Z,16.38
2022-11-05T08:25:24.250Z,16.85
2022-11-05T08:28:06.166Z,16.75
2022-11-05T08:30:33.878Z,15.32
2022-11-05T08:33:03.737Z,15.70
2022-11-05T08:35:31.387Z,14.82
2022-11-05T08:38:02.743Z,13.85
2022-11-05T08:40:32.235Z,13.88
2022-11-05T08:43:01.315Z,13.13
2022-11-05T08:45:29.192Z,13.50
2022-11-05T08:48:04.923Z,13.52
2022-11-05T08:50:33.061Z,12.07
2022-11-05T08:53:00.410Z,13.07
2022-11-05T08:55:28.154Z,12.65
2022-11-05T08:58:07.650Z,12.65
2022-11-05T09:00:37.625Z,13.50
2022-11-05T09:03:08.307Z,15.60
2022-11-05T09:05:38.381Z,14.50
2022-11-05T09:08:13.982Z,14.60
2022-11-05T09:10:42.452Z,14.43
2022-11-05T09:13:16.514Z,15.27
2022-11-05T09:15:50.419Z,16.13
2022-11-05T09:18:18.950Z,16.35
2022-11-05T09:20:46.861Z,16.35
2022-11-05T09:23:15.346Z,15.95
2022-11-05T09:25:42.955Z,16.20
2022-11-05T09:28:22.186Z,17.45
2022-11-05T09:30:51.533Z,16.55
2022-11-05T09:33:23.122Z,18.65
2022-11-05T09:35:50.576Z,18.20
2022-11-05T09:38:18.415Z,17.75
2022-11-05T09:41:04.191Z,17.48
2022-11-05T09:43:39.076Z,17.88
2022-11-05T09:46:21.474Z,17.00
2022-11-05T09:49:05.516Z,17.35
2022-11-05T09:51:33.421Z,16.48
2022-11-05T09:54:02.962Z,15.40
2022-11-05T09:56:34.567Z,16.02
2022-11-05T09:59:13.625Z,16.02
2022-11-05T10:01:42.721Z,16.02
2022-11-05T10:04:15.533Z,15.40
2022-11-05T10:07:04.426Z,15.98
2022-11-05T10:09:40.304Z,17.15
2022-11-05T10:12:30.359Z,16.70
2022-11-05T10:15:18.275Z,15.45
2022-11-05T10:17:50.036Z,15.18
2022-11-05T10:20:34.163Z,15.85
2022-11-05T10:23:10.384Z,14.48
2022-11-05T10:25:41.408Z,15.40
2022-11-05T10:28:14.510Z,18.33
2022-11-05T10:30:42.601Z,15.27
2022-11-05T10:33:14.080Z,14.88
2022-11-05T10:35:49.823Z,13.45
2022-11-05T10:38:17.488Z,14.45
2022-11-05T10:41:22.587Z,14.68
2022-11-05T10:43:54.118Z,14.43
2022-11-05T10:46:39.266Z,13.05
2022-11-05T10:49:52.493Z,12.13
2022-11-05T10:52:24.120Z,14.38
2022-11-05T10:54:55.116Z,15.38
2022-11-05T10:57:33.294Z,14.35
2022-11-05T11:00:16.059Z,14.07
2022-11-05T11:02:46.921Z,14.05
2022-11-05T11:05:31.681Z,14.38
2022-11-05T11:08:10.266Z,14.82
2022-11-05T11:10:58.979Z,13.38
2022-11-05T11:13:49.259Z,14.20
2022-11-05T11:16:24.125Z,14.45
2022-11-05T11:18:56.992Z,13.60
2022-11-05T11:21:24.832Z,14.60
2022-11-05T11:23:57.868Z,14.52
2022-11-05T11:26:29.238Z,14.43
2022-11-05T11:29:05.601Z,13.88
2022-11-05T11:31:37.559Z,13.80
2022-11-05T11:34:11.136Z,13.25
2022-11-05T11:36:47.913Z,13.18
2022-11-05T11:39:22.510Z,12.23
2022-11-05T11:41:57.759Z,11.95
2022-11-05T11:44:32.888Z,11.93
2022-11-05T11:47:10.448Z,12.40
2022-11-05T11:49:55.309Z,13.02
2022-11-05T11:52:31.519Z,12.23
2022-11-05T11:55:21.792Z,13.07
2022-11-05T11:57:50.827Z,14.35
2022-11-05T12:00:20.186Z,13.05
2022-11-05T12:03:15.066Z,12.43
2022-11-05T12:06:12.980Z,13.65
2022-11-05T12:08:44.988Z,13.55
2022-11-05T12:11:25.708Z,12.95
2022-11-05T12:14:04.561Z,13.07
2022-11-05T12:16:34.910Z,12.88
2022-11-05T12:19:02.199Z,13.10
2022-11-05T12:21:58.830Z,13.07
2022-11-05T12:24:49.051Z,11.45
2022-11-05T12:28:03.933Z,11.48
2022-11-05T12:30:43.169Z,10.52
2022-11-05T12:33:35.304Z,10.10
2022-11-05T12:39:13.670Z,10.57
2022-11-05T12:42:01.329Z,11.95
2022-11-05T12:44:53.270Z,11.50
2022-11-05T12:47:35.743Z,11.10
2022-11-05T12:50:29.610Z,10.35
2022-11-05T12:52:56.868Z,11.65
2022-11-05T12:55:27.305Z,11.02
2022-11-05T12:57:59.266Z,11.88
2022-11-05T13:03:28.166Z,10.80
2022-11-05T13:06:24.295Z,11.18
2022-11-05T13:09:17.807Z,11.73
2022-11-05T13:11:53.723Z,11.02
2022-11-05T13:14:59.588Z,11.55
2022-11-05T13:17:53.378Z,11.77
2022-11-05T13:20:24.449Z,12.25
2022-11-05T13:23:30.125Z,10.93
2022-11-05T13:26:07.313Z,11.98
2022-11-05T13:28:51.396Z,11.25
2022-11-05T13:31:32.738Z,10.43
2022-11-05T13:34:05.274Z,9.98
2022-11-05T13:37:12.890Z,10.93
2022-11-05T13:39:48.029Z,10.85
2022-11-05T13:42:33.689Z,11.55
2022-11-05T13:45:13.652Z,11.57
2022-11-05T13:48:10.286Z,12.70
2022-11-05T13:50:51.755Z,11.90
2022-11-05T13:53:42.730Z,11.13
2022-11-05T13:56:32.532Z,11.20
2022-11-05T13:59:06.188Z,8.70
2022-11-05T14:01:50.500Z,9.32
2022-11-05T14:04:36.007Z,8.68
2022-11-05T14:07:15.396Z,7.55
2022-11-05T14:09:44.236Z,8.68
2022-11-05T14:12:34.958Z,8.80
2022-11-05T14:15:17.738Z,8.57
2022-11-05T14:17:54.811Z,8.82
2022-11-05T14:20:27.125Z,8.93
2022-11-05T14:23:17.554Z,8.57
2022-11-05T14:25:45.319Z,8.98
2022-11-05T14:28:50.209Z,9.07
2022-11-05T14:31:20.638Z,8.35
2022-11-05T14:34:02.362Z,9.10
2022-11-05T14:36:33.858Z,9.55
2022-11-05T14:39:13.527Z,10.60
2022-11-05T14:42:01.966Z,10.93
2022-11-05T14:44:33.079Z,10.55
2022-11-05T14:47:04.698Z,10.57
2022-11-05T14:49:40.220Z,9.60
2022-11-05T14:52:11.284Z,9.55
2022-11-05T14:55:00.272Z,10.60
2022-11-05T14:57:42.621Z,9.90
2022-11-05T15:00:29.065Z,10.27
2022-11-05T15:02:58.138Z,11.43
2022-11-05T15:05:33.419Z,10.93
2022-11-05T15:08:24.881Z,11.38
2022-11-05T15:10:56.359Z,11.57
2022-11-05T15:13:51.095Z,13.35
2022-11-05T15:16:25.966Z,11.75
2022-11-05T15:18:56.013Z,10.18
2022-11-05T15:21:25.580Z,10.13
2022-11-05T15:23:56.825Z,10.05
2022-11-05T15:26:46.488Z,10.98
2022-11-05T15:29:22.256Z,11.02
2022-11-05T15:31:50.387Z,11.95
2022-11-05T15:34:33.164Z,11.88
2022-11-05T15:37:11.287Z,10.80
2022-11-05T15:39:40.694Z,10.52
2022-11-05T15:42:19.186Z,10.77
2022-11-05T15:44:48.664Z,10.52
2022-11-05T15:47:23.103Z,9.90
2022-11-05T15:50:01.484Z,10.10
2022-11-05T15:52:36.072Z,10.77
2022-11-05T15:55:26.318Z,10.70
2022-11-05T15:58:00.099Z,11.23
2022-11-05T16:00:30.098Z,10.20
2022-11-05T16:03:07.227Z,11.60
2022-11-05T16:05:41.044Z,10.50
2022-11-05T16:08:20.075Z,12.60
2022-11-05T16:10:51.867Z,12.27
2022-11-05T16:13:22.147Z,12.57
2022-11-05T16:15:58.764Z,12.95
2022-11-05T16:18:35.158Z,12.18
2022-11-05T16:21:13.259Z,11.80
2022-11-05T16:23:43.791Z,11.88
2022-11-05T16:27:01.804Z,12.20
2022-11-05T16:29:35.505Z,11.50
2022-11-05T16:32:26.905Z,12.18
2022-11-05T16:35:05.711Z,12.10
2022-11-05T16:37:41.089Z,12.38
2022-11-05T16:40:18.142Z,12.20
2022-11-05T16:42:51.374Z,11.88
2022-11-05T16:45:24.053Z,12.95
2022-11-05T16:47:52.060Z,12.68
2022-11-05T16:50:30.230Z,12.90
2022-11-05T16:52:57.573Z,12.10
2022-11-05T16:55:24.945Z,13.02
2022-11-05T16:57:54.678Z,12.73
2022-11-05T17:00:23.196Z,13.32
2022-11-05T17:02:51.212Z,12.60
2022-11-05T17:05:22.954Z,12.57
2022-11-05T17:07:50.918Z,13.43
2022-11-05T17:10:19.833Z,12.35
2022-11-05T17:12:48.403Z,12.50
2022-11-05T17:15:25.306Z,14.35
2022-11-05T17:17:54.707Z,14.15
2022-11-05T17:20:40.441Z,13.80
2022-11-05T17:23:16.380Z,14.13
2022-11-05T17:25:47.061Z,14.60
2022-11-05T17:28:16.648Z,15.40
2022-11-05T17:30:51.692Z,14.90
2022-11-05T17:33:21.972Z,14.00
2022-11-05T17:35:50.061Z,14.00
2022-11-05T17:38:18.717Z,13.02
2022-11-05T17:40:46.777Z,12.18
2022-11-05T17:43:15.725Z,12.38
2022-11-05T17:45:46.159Z,12.48
2022-11-05T17:48:14.572Z,13.32
2022-11-05T17:50:43.844Z,13.18
2022-11-05T17:53:15.818Z,13.32
2022-11-05T17:55:45.424Z,11.60
2022-11-05T17:58:13.255Z,11.70
2022-11-05T18:00:41.899Z,11.35
2022-11-05T18:03:10.788Z,12.13
2022-11-05T18:05:40.065Z,11.95
2022-11-05T18:08:08.610Z,11.95
2022-11-05T18:10:40.730Z,13.15
2022-11-05T18:13:08.207Z,13.70
2022-11-05T18:15:38.113Z,11.77
2022-11-05T18:18:05.524Z,12.70
2022-11-05T18:20:33.292Z,12.25
2022-11-05T18:23:00.824Z,12.15
2022-11-05T18:25:28.423Z,11.32
2022-11-05T18:27:56.240Z,11.77
2022-11-05T18:30:23.703Z,12.63
2022-11-05T18:32:52.705Z,11.75
2022-11-05T18:35:20.937Z,11.98
2022-11-05T18:37:48.260Z,11.02
2022-11-05T18:40:15.853Z,11.25
2022-11-05T18:42:43.295Z,10.43
2022-11-05T18:45:11.439Z,10.35
2022-11-05T18:47:39.029Z,10.77
2022-11-05T18:50:10.652Z,10.18
2022-11-05T18:52:38.032Z,10.43
2022-11-05T18:55:06.065Z,10.27
2022-11-05T18:57:34.657Z,9.57
2022-11-05T19:00:02.770Z,9.45
2022-11-05T19:02:30.322Z,9.45
2022-11-05T19:05:27.261Z,8.65
2022-11-05T19:07:45.207Z,9.52
2022-11-05T19:10:12.997Z,9.65
2022-11-05T19:12:40.977Z,10.75
2022-11-05T19:15:09.071Z,9.68
2022-11-05T19:17:37.171Z,10.02
2022-11-05T19:20:07.932Z,9.27
2022-11-05T19:22:35.694Z,9.10
2022-11-05T19:25:05.305Z,10.32
2022-11-05T19:27:34.873Z,10.13
2022-11-05T19:30:04.762Z,8.98
2022-11-05T19:32:32.704Z,9.07
2022-11-05T19:35:00.801Z,9.40
2022-11-05T19:37:28.355Z,9.25
2022-11-05T19:39:56.071Z,9.10
2022-11-05T19:42:24.230Z,9.45
2022-11-05T19:44:53.712Z,9.68
2022-11-05T19:47:21.587Z,10.20
2022-11-05T19:49:49.186Z,10.30
2022-11-05T19:52:16.967Z,9.68
2022-11-05T19:54:46.348Z,9.68
2022-11-05T19:57:13.998Z,9.68
2022-11-05T19:59:41.564Z,11.38
2022-11-05T20:02:15.797Z,10.82
2022-11-05T20:04:44.947Z,12.73
2022-11-05T20:07:12.777Z,12.88
2022-11-05T20:09:40.514Z,13.40
2022-11-05T20:12:08.081Z,13.43
2022-11-05T20:14:38.287Z,12.27
2022-11-05T20:17:05.762Z,12.52
2022-11-05T20:19:35.622Z,10.80
2022-11-05T20:22:03.344Z,12.02
2022-11-05T20:24:33.651Z,11.50
2022-11-05T20:27:02.711Z,11.05
2022-11-05T20:29:35.377Z,10.45
2022-11-05T20:32:04.959Z,11.68
2022-11-05T20:34:34.304Z,11.90
2022-11-05T20:37:04.542Z,12.88
2022-11-05T20:39:33.240Z,12.48
2022-11-05T20:42:01.103Z,11.48
2022-11-05T20:44:28.575Z,12.23
2022-11-05T20:46:56.469Z,11.52
2022-11-05T20:49:25.617Z,12.30
2022-11-05T20:51:53.828Z,12.82
2022-11-05T20:54:22.118Z,15.23
2022-11-05T20:56:49.910Z,13.70
2022-11-05T20:59:17.374Z,13.13
2022-11-05T21:01:45.081Z,13.25
2022-11-05T21:04:13.725Z,15.85
2022-11-05T21:06:41.026Z,13.88
2022-11-05T21:09:08.406Z,12.55
2022-11-05T21:11:54.461Z,13.07
2022-11-05T21:14:21.955Z,13.75
2022-11-05T21:16:49.380Z,13.40
2022-11-05T21:19:16.655Z,13.85
2022-11-05T21:21:44.253Z,13.13
2022-11-05T21:24:11.707Z,12.98
2022-11-05T21:26:39.729Z,13.27
2022-11-05T21:29:08.195Z,13.48
2022-11-05T21:31:37.975Z,15.07
2022-11-05T21:34:05.428Z,14.73
2022-11-05T21:36:33.055Z,18.00
2022-11-05T21:39:00.447Z,14.77
2022-11-05T21:41:27.984Z,16.35
2022-11-05T21:43:55.550Z,15.30
2022-11-05T21:46:23.849Z,15.75
2022-11-05T21:48:51.108Z,15.15
2022-11-05T21:51:37.024Z,15.35
2022-11-05T21:54:22.964Z,17.45
2022-11-05T21:57:10.956Z,16.08
2022-11-05T21:59:55.442Z,15.50
2022-11-05T22:02:24.626Z,16.02
2022-11-05T22:04:53.878Z,15.88
2022-11-05T22:07:24.811Z,16.42
2022-11-05T22:09:52.342Z,15.80
2022-11-05T22:12:19.814Z,17.00
2022-11-05T22:14:47.362Z,16.67
2022-11-05T22:17:15.209Z,17.75
2022-11-05T22:19:42.943Z,17.17
2022-11-05T22:22:10.696Z,15.00
2022-11-05T22:24:38.544Z,15.75
2022-11-05T22:27:14.662Z,17.50
2022-11-05T22:29:42.532Z,16.33
2022-11-05T22:32:11.141Z,17.42
2022-11-05T22:34:38.792Z,17.25
2022-11-05T22:37:06.173Z,22.08
2022-11-05T22:39:33.564Z,28.45
2022-11-05T22:42:04.323Z,17.77
2022-11-05T22:44:35.685Z,18.70
2022-11-05T22:47:03.036Z,16.67
2022-11-05T22:49:30.252Z,15.75
2022-11-05T22:51:57.549Z,16.40
2022-11-05T22:54:24.833Z,18.08
2022-11-05T22:56:53.257Z,18.42
2022-11-05T22:59:20.573Z,17.30
2022-11-05T23:01:48.212Z,16.77
2022-11-05T23:04:17.288Z,16.55
2022-11-05T23:07:03.119Z,17.17
2022-11-05T23:09:51.725Z,16.10
2022-11-05T23:12:24.614Z,18.80
2022-11-05T23:14:53.090Z,16.73
2022-11-05T23:17:39.176Z,15.68
2022-11-05T23:20:26.901Z,16.15
2022-11-05T23:23:12.660Z,16.08
2022-11-05T23:25:39.962Z,16.27
2022-11-05T23:28:10.399Z,20.70
2022-11-05T23:31:00.591Z,16.77
2022-11-05T23:33:29.252Z,17.13
2022-11-05T23:36:15.226Z,22.60
2022-11-05T23:38:42.533Z,20.75
2022-11-05T23:41:28.600Z,18.50
2022-11-05T23:44:14.552Z,18.00
2022-11-05T23:47:00.302Z,17.83
2022-11-05T23:49:27.657Z,19.02
2022-11-05T23:51:54.960Z,17.50
2022-11-05T23:54:22.638Z,18.10
2022-11-05T23:56:49.880Z,17.92
2022-11-05T23:59:17.251Z,17.75
